Terminal Aerodrome Forecast
Issued by NWS Mt. Holly, NJ

Home | Current Version | Previous Version | Text Only | Print | Product List | Glossary On
Versions: 1 2 3 4 5 6 7 8 9 10 11 12 13 14
000
FTUS41 KPHI 010145 AAA
TAFRDG
TAF AMD
KRDG 010145Z 0102/0124 VRB03KT P6SM VCSH BKN050
      TEMPO 0103/0105 4SM -SHRA BR OVC040
     FM010500 VRB03KT P6SM VCSH SCT020 BKN040
      TEMPO 0106/0109 3SM SHRA BR OVC020
     FM010900 VRB03KT 5SM BR VCSH OVC020
     FM011100 35005KT P6SM BKN040
     FM011600 36005KT P6SM SCT050 BKN250
     FM012000 34005KT P6SM SCT250=

USA.gov is the U.S. government's official web portal to all federal, state and local government web resources and services.